Lake George, New York
Current Conditions -  °F | °C
As of 6:53 PM on Thursday 18 Dec 2014 (Local Time) from KGFL Reporting Station
Overcast Overcast  
Wind Chill: 29°   Ceiling: 2800
Heat Index: 35°   Visibility: 10mi
Dew Point: 25°   Wind: 7mph
Humidity: 67%   Direction: 340°NNW
Pressure: 29.93"   Gusts: NA
Location:  43.43°N, 73.72°W
Report Text: KGFL 182353Z AUTO 34006KT 10SM OVC028 02/M04 A2993 RMK AO2 SLP142 T00171039 10039 20017 51016
Loading
Personal Weather Stations






























Interactive Weather Map New forecast layout! Learn more

10-Day Weather Forecast

Advertisements
Track Severe Weather on mobile